LROP - BUCURESTI / HENRI COANDA

Compiled: 18:16:55 on 20/10/2018

Latest METAR/SPECI Reports

METAR LROP 201800Z 25006KT 9999 FEW040CB 14/13 Q1019 R88/29//95 NOSIG=

Previous reports

METAR LROP 201730Z 25008KT 9999 FEW010 FEW040CB 15/14 Q1019 R88/29//95 NOSIG=
METAR LROP 201700Z 31004KT 260V340 9999 -SHRA SCT010 SCT040CB 16/15 Q1020 RESHRA R88/29//95 NOSIG=
METAR LROP 201630Z 15004KT 8000 SHRA FEW015 SCT040CB 17/14 Q1019 WS ALL RWY R88/29//95 NOSIG=
METAR COR LROP 201600Z 22006KT 9999 FEW040CB 17/13 Q1019 WS ALL RWY NOSIG=

Latest TAF report

TAF LROP 201700Z 2018/2118 VRB04KT 9999 SCT040 PROB40 TEMPO 2018/2022 5000 -SHRA BKN010 SCT035CB BKN040 TEMPO 2103/2108 5000 -SHRA BKN010 SCT030CB BKN035 BECMG 2116/2118 06010KT=

Valid WARNINGS

No valid warnings for LROP